Terminal Aerodrome Forecast
Issued by NWS

Home | Current Version | Previous Version | Text Only | Print | Product List | Glossary On
Versions: 1 2 3 4 5 6 7 8 9 10 11 12 13 14 15 16 17 18 19 20 21 22 23 24 25 26 27 28
929
FTUS43 KLOT 282342
TAFORD
TAF
KORD 282342Z 2900/3006 27010G16KT P6SM VCSH BKN060
     FM290100 25007KT P6SM FEW080
     FM291500 26013G22KT P6SM SCT050
     FM291800 27016G27KT P6SM SCT060
     FM300000 27008KT P6SM FEW060=

USA.gov is the U.S. government's official web portal to all federal, state and local government web resources and services.